createdAt,value
2018-08-06T00:00:21.257Z,20.00
2018-08-06T00:02:49.602Z,19.90
2018-08-06T00:05:18.206Z,20.00
2018-08-06T00:07:46.584Z,20.00
2018-08-06T00:10:17.419Z,20.00
2018-08-06T00:12:45.771Z,20.00
2018-08-06T00:15:14.822Z,19.90
2018-08-06T00:17:43.232Z,19.80
2018-08-06T00:20:12.818Z,19.80
2018-08-06T00:22:41.555Z,19.70
2018-08-06T00:25:11.283Z,19.60
2018-08-06T00:27:39.978Z,19.60
2018-08-06T00:30:11.431Z,19.50
2018-08-06T00:32:40.647Z,19.50
2018-08-06T00:35:09.527Z,19.40
2018-08-06T00:37:38.069Z,19.40
2018-08-06T00:42:35.621Z,19.30
2018-08-06T00:45:04.843Z,19.30
2018-08-06T00:47:33.166Z,19.20
2018-08-06T00:50:01.459Z,19.20
2018-08-06T00:52:29.777Z,19.10
2018-08-06T00:54:58.065Z,19.00
2018-08-06T00:57:26.357Z,19.00
2018-08-06T00:59:54.670Z,19.00
2018-08-06T01:02:22.972Z,19.00
2018-08-06T01:04:51.278Z,18.90
2018-08-06T01:07:19.619Z,18.90
2018-08-06T01:09:47.894Z,18.80
2018-08-06T01:12:16.224Z,18.80
2018-08-06T01:14:44.527Z,18.80
2018-08-06T01:17:12.892Z,18.80
2018-08-06T01:19:41.157Z,18.70
2018-08-06T01:22:09.449Z,18.70
2018-08-06T01:24:37.726Z,18.80
2018-08-06T01:27:06.085Z,18.90
2018-08-06T01:32:02.457Z,18.90
2018-08-06T01:34:30.819Z,18.80
2018-08-06T01:36:59.105Z,18.80
2018-08-06T01:39:27.402Z,18.80
2018-08-06T01:41:55.702Z,18.70
2018-08-06T01:44:24.017Z,18.70
2018-08-06T01:46:52.334Z,18.70
2018-08-06T01:49:20.605Z,18.60
2018-08-06T01:51:48.940Z,18.50
2018-08-06T01:54:17.221Z,18.50
2018-08-06T01:56:45.493Z,18.50
2018-08-06T01:59:13.765Z,18.50
2018-08-06T02:01:42.066Z,18.40
2018-08-06T02:04:10.338Z,18.50
2018-08-06T02:09:07.687Z,18.50
2018-08-06T02:11:36.365Z,18.40
2018-08-06T02:14:04.917Z,18.40
2018-08-06T02:16:33.224Z,18.40
2018-08-06T02:19:01.522Z,18.30
2018-08-06T02:21:29.880Z,18.30
2018-08-06T02:23:58.177Z,18.20
2018-08-06T02:26:26.558Z,18.20
2018-08-06T02:28:54.910Z,18.20
2018-08-06T02:31:23.224Z,18.10
2018-08-06T02:33:51.512Z,18.00
2018-08-06T02:36:19.803Z,17.90
2018-08-06T02:38:48.136Z,17.90
2018-08-06T02:41:16.394Z,17.80
2018-08-06T02:43:44.701Z,17.70
2018-08-06T02:46:13.905Z,17.70
2018-08-06T02:48:42.234Z,17.60
2018-08-06T02:51:10.510Z,17.50
2018-08-06T02:53:38.802Z,17.50
2018-08-06T02:56:07.717Z,17.50
2018-08-06T02:58:35.998Z,17.40
2018-08-06T03:01:04.344Z,17.40
2018-08-06T03:03:32.723Z,17.40
2018-08-06T03:06:00.991Z,17.30
2018-08-06T03:08:29.409Z,17.30
2018-08-06T03:10:57.710Z,17.30
2018-08-06T03:13:25.983Z,17.20
2018-08-06T03:15:54.281Z,17.20
2018-08-06T03:18:22.562Z,17.10
2018-08-06T03:20:50.810Z,17.10
2018-08-06T03:23:19.087Z,17.10
2018-08-06T03:25:47.365Z,17.10
2018-08-06T03:28:15.700Z,17.00
2018-08-06T03:30:44.041Z,17.00
2018-08-06T03:33:12.385Z,17.00
2018-08-06T03:35:40.673Z,16.90
2018-08-06T03:38:08.961Z,16.90
2018-08-06T03:40:37.258Z,16.80
2018-08-06T03:43:05.718Z,16.80
2018-08-06T03:45:34.006Z,16.80
2018-08-06T03:48:02.277Z,16.80
2018-08-06T03:50:30.614Z,16.80
2018-08-06T03:52:58.928Z,16.80
2018-08-06T03:55:27.193Z,16.80
2018-08-06T03:57:55.493Z,16.70
2018-08-06T04:00:23.762Z,16.70
2018-08-06T04:02:52.081Z,16.70
2018-08-06T04:05:20.353Z,16.70
2018-08-06T04:07:48.650Z,16.70
2018-08-06T04:10:17.562Z,16.70
2018-08-06T04:12:46.084Z,16.70
2018-08-06T04:15:14.409Z,16.70
2018-08-06T04:17:43.888Z,16.60
2018-08-06T04:20:13.120Z,16.60
2018-08-06T04:22:42.269Z,16.60
2018-08-06T04:25:10.561Z,16.60
2018-08-06T04:27:39.013Z,16.60
2018-08-06T04:30:10.782Z,16.60
2018-08-06T04:32:39.075Z,16.60
2018-08-06T04:35:07.334Z,16.70
2018-08-06T04:37:35.601Z,16.80
2018-08-06T04:40:04.597Z,16.70
2018-08-06T04:42:32.885Z,16.70
2018-08-06T04:45:01.174Z,16.80
2018-08-06T04:47:29.474Z,16.80
2018-08-06T04:49:57.794Z,16.90
2018-08-06T04:52:26.071Z,17.00
2018-08-06T04:54:54.366Z,17.10
2018-08-06T04:57:22.697Z,17.20
2018-08-06T04:59:51.014Z,17.30
2018-08-06T05:02:19.722Z,17.50
2018-08-06T05:04:48.020Z,17.60
2018-08-06T05:07:16.302Z,17.70
2018-08-06T05:09:45.355Z,17.90
2018-08-06T05:12:13.722Z,18.00
2018-08-06T05:14:42.010Z,18.30
2018-08-06T05:17:10.259Z,18.50
2018-08-06T05:19:38.763Z,18.70
2018-08-06T05:22:07.442Z,18.70
2018-08-06T05:24:35.749Z,18.90
2018-08-06T05:27:04.063Z,18.90
2018-08-06T05:29:32.418Z,19.00
2018-08-06T05:32:00.717Z,19.10
2018-08-06T05:34:29.047Z,19.40
2018-08-06T05:36:57.406Z,19.70
2018-08-06T05:39:25.702Z,19.90
2018-08-06T05:41:54.211Z,20.00
2018-08-06T05:44:22.541Z,20.30
2018-08-06T05:46:50.853Z,20.40
2018-08-06T05:49:19.157Z,20.50
2018-08-06T05:51:47.432Z,20.70
2018-08-06T05:54:15.737Z,20.80
2018-08-06T05:56:44.038Z,20.90
2018-08-06T05:59:12.361Z,21.00
2018-08-06T06:01:40.750Z,21.10
2018-08-06T06:04:09.029Z,21.30
2018-08-06T06:06:37.374Z,21.30
2018-08-06T06:09:08.437Z,21.50
2018-08-06T06:11:36.885Z,21.70
2018-08-06T06:14:06.025Z,21.80
2018-08-06T06:16:34.347Z,21.60
2018-08-06T06:19:02.733Z,21.50
2018-08-06T06:21:31.198Z,21.70
2018-08-06T06:23:59.496Z,21.80
2018-08-06T06:26:27.771Z,21.90
2018-08-06T06:28:56.094Z,22.00
2018-08-06T06:31:24.941Z,22.10
2018-08-06T06:33:53.569Z,22.00
2018-08-06T06:36:21.934Z,22.10
2018-08-06T06:38:50.258Z,22.20
2018-08-06T06:41:18.518Z,22.20
2018-08-06T06:46:14.861Z,22.20
2018-08-06T06:48:43.179Z,22.30
2018-08-06T06:51:11.493Z,22.40
2018-08-06T06:53:39.842Z,22.20
2018-08-06T06:56:08.121Z,22.30
2018-08-06T06:58:36.388Z,22.40
2018-08-06T07:01:04.744Z,22.50
2018-08-06T07:03:33.002Z,22.60
2018-08-06T07:06:01.281Z,22.80
2018-08-06T07:08:29.548Z,23.00
2018-08-06T07:10:57.818Z,23.20
2018-08-06T07:13:26.105Z,23.40
2018-08-06T07:15:54.438Z,23.70
2018-08-06T07:18:22.741Z,23.50
2018-08-06T07:20:51.041Z,23.50
2018-08-06T07:23:19.360Z,23.70
2018-08-06T07:25:47.755Z,23.80
2018-08-06T07:28:16.055Z,23.90
2018-08-06T07:30:44.353Z,23.90
2018-08-06T07:33:12.630Z,24.10
2018-08-06T07:35:40.901Z,24.30
2018-08-06T07:38:09.164Z,24.80
2018-08-06T07:40:37.443Z,24.90
2018-08-06T07:43:05.965Z,25.00
2018-08-06T07:45:34.283Z,25.10
2018-08-06T07:48:02.563Z,25.40
2018-08-06T07:50:30.882Z,25.60
2018-08-06T07:52:59.182Z,25.70
2018-08-06T07:55:27.490Z,26.10
2018-08-06T07:57:55.826Z,25.80
2018-08-06T08:00:24.185Z,26.00
2018-08-06T08:02:52.478Z,26.60
2018-08-06T08:05:20.790Z,26.90
2018-08-06T08:07:49.284Z,27.90
2018-08-06T08:10:19.434Z,28.90
2018-08-06T08:12:47.742Z,30.00
2018-08-06T08:15:17.602Z,30.30
2018-08-06T08:17:47.020Z,30.00
2018-08-06T08:20:16.423Z,30.70
2018-08-06T08:22:44.905Z,32.30
2018-08-06T08:25:15.446Z,33.40
2018-08-06T08:27:44.101Z,33.40
2018-08-06T08:30:13.575Z,34.00
2018-08-06T08:32:41.901Z,33.80
2018-08-06T08:35:11.010Z,34.20
2018-08-06T08:37:39.528Z,34.60
2018-08-06T08:40:09.779Z,33.90
2018-08-06T08:42:38.189Z,34.30
2018-08-06T08:45:08.774Z,35.00
2018-08-06T08:47:37.206Z,34.20
2018-08-06T08:50:06.685Z,34.40
2018-08-06T08:52:34.982Z,34.60
2018-08-06T08:55:03.296Z,33.30
2018-08-06T08:57:31.573Z,34.50
2018-08-06T08:59:59.889Z,35.40
2018-08-06T09:02:28.184Z,35.50
2018-08-06T09:04:56.694Z,35.50
2018-08-06T09:07:25.094Z,35.40
2018-08-06T09:09:53.418Z,36.00
2018-08-06T09:12:21.747Z,37.00
2018-08-06T09:14:50.026Z,36.50
2018-08-06T09:17:18.349Z,36.40
2018-08-06T09:19:46.654Z,35.20
2018-08-06T09:22:14.957Z,33.70
2018-08-06T09:24:43.272Z,34.70
2018-08-06T09:27:11.692Z,36.40
2018-08-06T09:29:39.959Z,37.30
2018-08-06T09:32:08.234Z,38.30
2018-08-06T09:34:42.927Z,38.80
2018-08-06T09:37:11.190Z,38.40
2018-08-06T09:39:39.485Z,38.20
2018-08-06T09:42:07.941Z,38.10
2018-08-06T09:44:36.512Z,37.40
2018-08-06T09:47:04.837Z,37.60
2018-08-06T09:49:33.100Z,38.00
2018-08-06T09:52:01.397Z,37.60
2018-08-06T09:54:29.714Z,37.50
2018-08-06T09:56:58.017Z,38.60
2018-08-06T09:59:26.331Z,39.30
2018-08-06T10:01:56.715Z,39.70
2018-08-06T10:04:25.809Z,39.50
2018-08-06T10:06:54.167Z,39.40
2018-08-06T10:09:22.454Z,39.60
2018-08-06T10:11:50.872Z,39.20
2018-08-06T10:14:19.114Z,38.40
2018-08-06T10:16:47.421Z,37.50
2018-08-06T10:19:15.908Z,36.70
2018-08-06T10:21:44.241Z,37.90
2018-08-06T10:24:12.534Z,38.70
2018-08-06T10:26:40.839Z,39.50
2018-08-06T10:29:09.149Z,40.10
2018-08-06T10:34:05.507Z,40.60
2018-08-06T10:36:33.835Z,40.60
2018-08-06T10:39:02.146Z,39.70
2018-08-06T10:41:30.456Z,39.40
2018-08-06T10:43:58.754Z,39.30
2018-08-06T10:46:27.090Z,37.80
2018-08-06T10:48:55.362Z,37.60
2018-08-06T10:51:23.681Z,37.30
2018-08-06T10:53:51.996Z,36.90
2018-08-06T10:56:20.302Z,36.20
2018-08-06T10:58:48.585Z,34.90
2018-08-06T11:01:16.886Z,34.10
2018-08-06T11:03:45.141Z,33.40
2018-08-06T11:06:13.770Z,32.70
2018-08-06T11:08:42.096Z,31.80
2018-08-06T11:11:10.345Z,31.80
2018-08-06T11:13:38.642Z,31.90
2018-08-06T11:16:06.959Z,31.80
2018-08-06T11:18:35.226Z,31.50
2018-08-06T11:21:03.549Z,31.40
2018-08-06T11:23:31.853Z,31.30
2018-08-06T11:26:00.150Z,31.50
2018-08-06T11:28:28.476Z,31.50
2018-08-06T11:30:56.834Z,31.10
2018-08-06T11:33:25.129Z,31.00
2018-08-06T11:35:53.460Z,31.00
2018-08-06T11:40:49.806Z,31.10
2018-08-06T11:43:18.086Z,31.10
2018-08-06T11:45:46.362Z,31.10
2018-08-06T11:48:14.652Z,31.10
2018-08-06T11:50:42.941Z,31.00
2018-08-06T11:53:11.324Z,30.80
2018-08-06T11:55:39.625Z,30.50
2018-08-06T11:58:07.990Z,30.50
2018-08-06T12:00:36.378Z,30.60
2018-08-06T12:03:04.787Z,30.60
2018-08-06T12:05:33.293Z,30.60
2018-08-06T12:08:01.657Z,30.50
2018-08-06T12:10:29.947Z,30.40
2018-08-06T12:12:58.218Z,30.10
2018-08-06T12:15:26.488Z,30.10
2018-08-06T12:17:54.823Z,30.10
2018-08-06T12:20:23.138Z,30.20
2018-08-06T12:22:52.021Z,30.30
2018-08-06T12:25:20.365Z,30.30
2018-08-06T12:27:49.377Z,30.30
2018-08-06T12:30:21.213Z,30.40
2018-08-06T12:32:50.330Z,30.40
2018-08-06T12:35:18.914Z,30.50
2018-08-06T12:37:47.707Z,30.50
2018-08-06T12:40:18.235Z,30.60
2018-08-06T12:42:46.550Z,30.60
2018-08-06T12:45:15.815Z,30.60
2018-08-06T12:47:44.520Z,30.50
2018-08-06T12:50:13.897Z,30.70
2018-08-06T12:52:42.802Z,30.80
2018-08-06T12:55:12.494Z,30.90
2018-08-06T12:57:41.516Z,31.00
2018-08-06T13:00:15.421Z,31.00
2018-08-06T13:02:43.942Z,30.80
2018-08-06T13:05:12.574Z,30.70
2018-08-06T13:07:41.489Z,30.60
2018-08-06T13:10:09.874Z,30.60
2018-08-06T13:12:39.310Z,30.80
2018-08-06T13:15:09.372Z,30.90
2018-08-06T13:17:37.773Z,30.90
2018-08-06T13:20:06.573Z,30.90
2018-08-06T13:22:34.878Z,30.90
2018-08-06T13:25:03.183Z,30.80
2018-08-06T13:27:31.908Z,30.70
2018-08-06T13:30:00.264Z,30.70
2018-08-06T13:32:28.596Z,30.60
2018-08-06T13:34:56.877Z,30.60
2018-08-06T13:37:25.423Z,30.80
2018-08-06T13:39:53.731Z,30.90
2018-08-06T13:42:22.027Z,30.80
2018-08-06T13:47:18.425Z,30.90
2018-08-06T13:49:46.609Z,30.90
2018-08-06T13:52:14.946Z,30.90
2018-08-06T13:54:43.265Z,30.90
2018-08-06T13:57:11.549Z,31.00
2018-08-06T13:59:39.909Z,31.00
2018-08-06T14:02:08.266Z,30.90
2018-08-06T14:04:36.520Z,30.90
2018-08-06T14:07:04.892Z,30.80
2018-08-06T14:09:33.140Z,30.80
2018-08-06T14:12:01.445Z,30.80
2018-08-06T14:14:29.845Z,30.90
2018-08-06T14:16:58.225Z,30.80
2018-08-06T14:19:26.467Z,30.80
2018-08-06T14:21:54.806Z,30.70
2018-08-06T14:24:23.086Z,30.70
2018-08-06T14:26:51.365Z,30.70
2018-08-06T14:29:20.662Z,30.70
2018-08-06T14:31:49.002Z,30.80
2018-08-06T14:34:17.819Z,30.90
2018-08-06T14:36:46.025Z,30.90
2018-08-06T14:39:14.326Z,30.90
2018-08-06T14:41:43.729Z,30.90
2018-08-06T14:44:12.043Z,30.90
2018-08-06T14:46:40.357Z,31.20
2018-08-06T14:49:09.062Z,31.20
2018-08-06T14:51:37.345Z,31.20
2018-08-06T14:54:05.877Z,31.10
2018-08-06T14:56:34.173Z,31.20
2018-08-06T14:59:02.523Z,31.20
2018-08-06T15:01:30.797Z,31.10
2018-08-06T15:03:59.070Z,31.00
2018-08-06T15:06:27.396Z,30.90
2018-08-06T15:08:55.789Z,30.90
2018-08-06T15:11:24.108Z,30.90
2018-08-06T15:13:52.546Z,30.90
2018-08-06T15:16:20.978Z,30.90
2018-08-06T15:18:49.281Z,30.90
2018-08-06T15:21:17.582Z,30.90
2018-08-06T15:23:45.862Z,30.90
2018-08-06T15:26:14.140Z,30.90
2018-08-06T15:28:42.437Z,30.90
2018-08-06T15:31:10.686Z,30.90
2018-08-06T15:33:38.978Z,30.90
2018-08-06T15:36:07.304Z,30.80
2018-08-06T15:38:35.836Z,31.00
2018-08-06T15:41:04.122Z,31.00
2018-08-06T15:43:32.481Z,31.10
2018-08-06T15:46:00.725Z,31.20
2018-08-06T15:48:29.025Z,31.20
2018-08-06T15:50:57.386Z,31.20
2018-08-06T15:53:25.663Z,31.10
2018-08-06T15:55:53.903Z,31.10
2018-08-06T15:58:22.258Z,31.00
2018-08-06T16:00:50.638Z,30.90
2018-08-06T16:03:18.929Z,30.70
2018-08-06T16:05:47.305Z,30.80
2018-08-06T16:08:15.729Z,30.90
2018-08-06T16:10:44.355Z,30.90
2018-08-06T16:13:12.643Z,30.90
2018-08-06T16:15:40.910Z,30.90
2018-08-06T16:18:09.287Z,30.80
2018-08-06T16:20:37.586Z,30.80
2018-08-06T16:23:05.943Z,30.80
2018-08-06T16:25:34.288Z,30.80
2018-08-06T16:28:02.854Z,30.80
2018-08-06T16:30:31.129Z,30.90
2018-08-06T16:32:59.400Z,31.10
2018-08-06T16:35:27.705Z,31.30
2018-08-06T16:37:56.946Z,31.40
2018-08-06T16:40:25.278Z,31.40
2018-08-06T16:42:53.660Z,31.30
2018-08-06T16:45:22.003Z,31.10
2018-08-06T16:47:50.352Z,30.90
2018-08-06T16:50:18.960Z,30.70
2018-08-06T16:52:47.556Z,30.70
2018-08-06T16:55:15.675Z,30.70
2018-08-06T17:00:16.725Z,30.90
2018-08-06T17:02:45.253Z,30.90
2018-08-06T17:05:14.166Z,30.90
2018-08-06T17:07:43.882Z,31.00
2018-08-06T17:10:14.686Z,31.20
2018-08-06T17:12:44.207Z,31.20
2018-08-06T17:15:14.135Z,31.20
2018-08-06T17:17:42.800Z,31.20
2018-08-06T17:20:14.093Z,31.20
2018-08-06T17:22:43.138Z,31.10
2018-08-06T17:25:12.370Z,30.90
2018-08-06T17:27:41.036Z,30.80
2018-08-06T17:30:10.098Z,30.80
2018-08-06T17:32:38.922Z,31.00
2018-08-06T17:35:09.058Z,31.10
2018-08-06T17:37:37.391Z,31.10
2018-08-06T17:45:03.793Z,31.00
2018-08-06T17:47:32.120Z,31.00
2018-08-06T17:50:00.516Z,31.10
2018-08-06T17:52:28.811Z,31.10
2018-08-06T17:54:57.087Z,31.10
2018-08-06T17:57:25.413Z,31.20
2018-08-06T17:59:53.750Z,31.20
2018-08-06T18:02:22.052Z,31.20
2018-08-06T18:04:50.328Z,31.10
2018-08-06T18:07:18.624Z,31.10
2018-08-06T18:09:46.911Z,31.10
2018-08-06T18:12:15.233Z,31.10
2018-08-06T18:14:43.530Z,31.00
2018-08-06T18:17:11.941Z,30.90
2018-08-06T18:19:40.254Z,30.80
2018-08-06T18:22:08.543Z,30.70
2018-08-06T18:24:36.835Z,30.60
2018-08-06T18:27:05.735Z,30.60
2018-08-06T18:29:34.070Z,30.50
2018-08-06T18:32:02.518Z,30.50
2018-08-06T18:34:30.799Z,30.40
2018-08-06T18:36:59.107Z,30.40
2018-08-06T18:39:27.370Z,30.30
2018-08-06T18:41:55.687Z,30.10
2018-08-06T18:44:23.941Z,30.00
2018-08-06T18:46:52.204Z,30.00
2018-08-06T18:49:20.558Z,29.80
2018-08-06T18:51:49.154Z,29.70
2018-08-06T18:54:17.526Z,29.60
2018-08-06T18:56:45.823Z,29.30
2018-08-06T18:59:14.125Z,29.10
2018-08-06T19:01:42.421Z,28.90
2018-08-06T19:04:10.681Z,28.70
2018-08-06T19:06:39.019Z,28.50
2018-08-06T19:09:13.507Z,28.40
2018-08-06T19:11:42.309Z,28.30
2018-08-06T19:14:15.997Z,28.20
2018-08-06T19:16:44.321Z,28.10
2018-08-06T19:19:18.074Z,28.00
2018-08-06T19:21:46.386Z,28.00
2018-08-06T19:24:20.122Z,27.90
2018-08-06T19:26:48.599Z,27.80
2018-08-06T19:29:16.879Z,27.70
2018-08-06T19:31:45.161Z,27.60
2018-08-06T19:34:13.413Z,27.60
2018-08-06T19:36:47.054Z,27.50
2018-08-06T19:39:15.687Z,27.40
2018-08-06T19:41:44.093Z,27.30
2018-08-06T19:44:12.313Z,27.20
2018-08-06T19:46:40.566Z,27.20
2018-08-06T19:50:12.970Z,27.10
2018-08-06T19:52:41.309Z,27.10
2018-08-06T19:55:14.991Z,27.00
2018-08-06T19:57:43.578Z,26.90
2018-08-06T20:00:13.380Z,26.90
2018-08-06T20:02:42.488Z,26.80
2018-08-06T20:05:10.774Z,26.70
2018-08-06T20:07:39.108Z,26.50
2018-08-06T20:12:36.350Z,25.90
2018-08-06T20:15:05.466Z,25.60
2018-08-06T20:17:33.733Z,25.50
2018-08-06T20:20:02.009Z,25.50
2018-08-06T20:22:30.285Z,25.40
2018-08-06T20:24:58.550Z,25.40
2018-08-06T20:27:26.845Z,25.30
2018-08-06T20:29:55.106Z,25.40
2018-08-06T20:32:23.388Z,25.40
2018-08-06T20:34:51.649Z,25.40
2018-08-06T20:37:19.945Z,25.50
2018-08-06T20:39:48.194Z,25.60
2018-08-06T20:42:16.537Z,25.60
2018-08-06T20:44:44.936Z,25.60
2018-08-06T20:47:13.217Z,25.60
2018-08-06T20:49:41.495Z,25.50
2018-08-06T20:52:09.804Z,25.40
2018-08-06T20:54:38.071Z,25.30
2018-08-06T20:57:06.381Z,25.30
2018-08-06T20:59:34.665Z,25.20
2018-08-06T21:02:02.919Z,25.20
2018-08-06T21:04:31.174Z,25.10
2018-08-06T21:06:59.430Z,25.10
2018-08-06T21:11:55.693Z,25.10
2018-08-06T21:14:23.996Z,25.00
2018-08-06T21:16:52.275Z,25.00
2018-08-06T21:19:20.725Z,25.00
2018-08-06T21:21:48.973Z,25.00
2018-08-06T21:24:17.249Z,25.00
2018-08-06T21:26:45.526Z,24.90
2018-08-06T21:29:13.865Z,24.90
2018-08-06T21:31:42.095Z,24.90
2018-08-06T21:34:10.398Z,24.80
2018-08-06T21:36:38.689Z,24.80
2018-08-06T21:39:09.276Z,24.70
2018-08-06T21:41:37.531Z,24.70
2018-08-06T21:44:06.135Z,24.80
2018-08-06T21:46:34.393Z,24.80
2018-08-06T21:49:02.677Z,24.80
2018-08-06T21:51:31.014Z,24.80
2018-08-06T21:53:59.395Z,24.70
2018-08-06T21:56:27.703Z,24.80
2018-08-06T21:58:56.045Z,24.80
2018-08-06T22:01:24.409Z,24.80
2018-08-06T22:03:52.677Z,24.80
2018-08-06T22:06:20.967Z,24.80
2018-08-06T22:08:49.239Z,24.90
2018-08-06T22:11:17.562Z,25.00
2018-08-06T22:13:45.875Z,25.00
2018-08-06T22:16:14.145Z,24.90
2018-08-06T22:18:42.476Z,24.90
2018-08-06T22:21:10.750Z,24.80
2018-08-06T22:23:39.031Z,24.70
2018-08-06T22:26:07.326Z,24.70
2018-08-06T22:28:35.598Z,24.60
2018-08-06T22:31:03.885Z,24.50
2018-08-06T22:33:32.189Z,24.40
2018-08-06T22:36:00.455Z,24.30
2018-08-06T22:38:28.741Z,24.30
2018-08-06T22:40:57.025Z,24.20
2018-08-06T22:43:25.339Z,24.10
2018-08-06T22:45:53.597Z,24.00
2018-08-06T22:48:21.877Z,23.90
2018-08-06T22:50:50.128Z,23.80
2018-08-06T22:53:18.397Z,23.80
2018-08-06T22:55:58.250Z,23.80
2018-08-06T22:58:26.552Z,23.70
2018-08-06T23:00:54.821Z,23.70
2018-08-06T23:03:23.130Z,23.60
2018-08-06T23:05:51.426Z,23.60
2018-08-06T23:08:19.757Z,23.60
2018-08-06T23:10:48.046Z,23.50
2018-08-06T23:13:16.305Z,23.50
2018-08-06T23:15:45.544Z,23.50
2018-08-06T23:18:13.954Z,23.40
2018-08-06T23:20:42.254Z,23.50
2018-08-06T23:23:10.558Z,23.50
2018-08-06T23:25:38.821Z,23.50
2018-08-06T23:28:07.101Z,23.50
2018-08-06T23:30:35.417Z,23.40
2018-08-06T23:33:03.698Z,23.40
2018-08-06T23:35:32.086Z,23.30
2018-08-06T23:38:00.361Z,23.20
2018-08-06T23:40:28.670Z,23.20
2018-08-06T23:42:56.978Z,23.20
2018-08-06T23:45:25.273Z,23.10
2018-08-06T23:47:53.515Z,23.10
2018-08-06T23:50:21.863Z,23.00
2018-08-06T23:52:50.149Z,22.90
2018-08-06T23:55:19.017Z,22.90
2018-08-06T23:57:47.333Z,22.90
